地図

経路データ

SID SEASON NUMBER BASIN SUBBASIN NAME ISO_TIME NATURE LAT LON WMO_WIND WMO_PRES WMO_AGENCY TRACK_TYPE DIST2LAND LANDFALL IFLAG USA_AGENCY USA_ATCF_ID USA_LAT USA_LON USA_RECORD USA_STATUS USA_WIND USA_PRES USA_SSHS USA_R34_NE USA_R34_SE USA_R34_SW USA_R34_NW USA_R50_NE USA_R50_SE USA_R50_SW USA_R50_NW USA_R64_NE USA_R64_SE USA_R64_SW USA_R64_NW USA_POCI USA_ROCI USA_RMW USA_EYE TOKYO_LAT TOKYO_LON TOKYO_GRADE TOKYO_WIND TOKYO_PRES TOKYO_R50_DIR TOKYO_R50_LONG TOKYO_R50_SHORT TOKYO_R30_DIR TOKYO_R30_LONG TOKYO_R30_SHORT TOKYO_LAND CMA_LAT CMA_LON CMA_CAT CMA_WIND CMA_PRES HKO_LAT HKO_LON HKO_CAT HKO_WIND HKO_PRES NEWDELHI_LAT NEWDELHI_LON NEWDELHI_GRADE NEWDELHI_WIND NEWDELHI_PRES NEWDELHI_CI NEWDELHI_DP NEWDELHI_POCI REUNION_LAT REUNION_LON REUNION_TYPE REUNION_WIND REUNION_PRES REUNION_TNUM REUNION_CI REUNION_RMW REUNION_R34_NE REUNION_R34_SE REUNION_R34_SW REUNION_R34_NW REUNION_R50_NE REUNION_R50_SE REUNION_R50_SW REUNION_R50_NW REUNION_R64_NE REUNION_R64_SE REUNION_R64_SW REUNION_R64_NW BOM_LAT BOM_LON BOM_TYPE BOM_WIND BOM_PRES BOM_TNUM BOM_CI BOM_RMW BOM_R34_NE BOM_R34_SE BOM_R34_SW BOM_R34_NW BOM_R50_NE BOM_R50_SE BOM_R50_SW BOM_R50_NW BOM_R64_NE BOM_R64_SE BOM_R64_SW BOM_R64_NW BOM_ROCI BOM_POCI BOM_EYE BOM_POS_METHOD BOM_PRES_METHOD NADI_LAT NADI_LON NADI_CAT NADI_WIND NADI_PRES WELLINGTON_LAT WELLINGTON_LON WELLINGTON_WIND WELLINGTON_PRES DS824_LAT DS824_LON DS824_STAGE DS824_WIND DS824_PRES TD9636_LAT TD9636_LON TD9636_STAGE TD9636_WIND TD9636_PRES TD9635_LAT TD9635_LON TD9635_WIND TD9635_PRES TD9635_ROCI NEUMANN_LAT NEUMANN_LON NEUMANN_CLASS NEUMANN_WIND NEUMANN_PRES MLC_LAT MLC_LON MLC_CLASS MLC_WIND MLC_PRES USA_GUST BOM_GUST BOM_GUST_PER REUNION_GUST REUNION_GUST_PER USA_SEAHGT USA_SEARAD_NE USA_SEARAD_SE USA_SEARAD_SW USA_SEARAD_NW STORM_SPEED STORM_DIR
1958208N16260 1958 58 EP MM NOT_NAMED 1958-07-26 12:00:00 TS 16.1000 -100.100 45 hurdat_epa main 79 77 O________OO___ hurdat_epa EP051958 16.1000 -100.100 TS 45 0 16.1000 -100.100 TC 45 16.1000 -100.100 2 13 294
1958208N16260 1958 58 EP MM NOT_NAMED 1958-07-26 15:00:00 TS 16.3571 -100.706 main 81 79 P________PP___ EP051958 16.3604 -100.710 TS 45 0 16.3604 -100.710 TC 45 16.3438 -100.692 2 13 293
1958208N16260 1958 58 EP MM NOT_NAMED 1958-07-26 18:00:00 TS 16.5959 -101.296 45 hurdat_epa main 81 79 O________OP___ hurdat_epa EP051958 16.6000 -101.300 TS 45 0 16.6000 -101.300 TC 45 16.5794 -101.278 2 12 292
1958208N16260 1958 58 EP MM NOT_NAMED 1958-07-26 21:00:00 TS 16.8059 -101.856 main 99 94 P________PP___ EP051958 16.8073 -101.858 TS 45 0 16.8073 -101.858 TC 45 16.8003 -101.850 2 11 291
1958208N16260 1958 58 EP MM NOT_NAMED 1958-07-27 00:00:00 TS 17.0000 -102.400 45 hurdat_epa main 101 91 O________OO___ hurdat_epa EP051958 17.0000 -102.400 TS 45 0 17.0000 -102.400 TC 45 17.0000 -102.400 2 11 291
1958208N16260 1958 58 EP MM NOT_NAMED 1958-07-27 03:00:00 TS 17.1954 -102.945 main 94 91 P________PP___ EP051958 17.1999 -102.950 TS 45 0 17.1999 -102.950 TC 45 17.1775 -102.926 2 11 291
1958208N16260 1958 58 EP MM NOT_NAMED 1958-07-27 06:00:00 TS 17.3906 -103.490 45 hurdat_epa main 94 91 O________OP___ hurdat_epa EP051958 17.4000 -103.500 TS 45 0 17.4000 -103.500 TC 45 17.3532 -103.450 2 11 290
1958208N16260 1958 58 EP MM NOT_NAMED 1958-07-27 09:00:00 TS 17.5721 -104.016 main 94 94 P________PP___ EP051958 17.5771 -104.021 TS 45 0 17.5771 -104.021 TC 45 17.5523 -103.999 2 11 291
1958208N16260 1958 58 EP MM NOT_NAMED 1958-07-27 12:00:00 TS 17.8000 -104.600 45 hurdat_epa main 129 129 O________OO___ hurdat_epa EP051958 17.8000 -104.600 TS 45 0 17.8000 -104.600 TC 45 17.8000 -104.600 2 14 294
1958208N16260 1958 58 EP MM NOT_NAMED 1958-07-27 15:00:00 TS 18.1219 -105.320 main 133 128 P________PP___ EP051958 18.1200 -105.320 TS 45 0 18.1200 -105.320 TC 45 18.1296 -105.320 2 16 296
1958208N16260 1958 58 EP MM NOT_NAMED 1958-07-27 18:00:00 TS 18.5013 -106.098 45 hurdat_epa main 153 153 O________OP___ hurdat_epa EP051958 18.5000 -106.100 TS 45 0 18.5000 -106.100 TC 45 18.5063 -106.091 2 17 298
1958208N16260 1958 58 EP MM NOT_NAMED 1958-07-27 21:00:00 TS 18.9009 -106.871 main 190 190 P________PP___ EP051958 18.8999 -106.872 TS 45 0 18.8999 -106.872 TC 45 18.9046 -106.867 2 16 299
1958208N16260 1958 58 EP MM NOT_NAMED 1958-07-28 00:00:00 TS 19.3000 -107.600 45 hurdat_epa main 233 233 O________OO___ hurdat_epa EP051958 19.3000 -107.600 TS 45 0 19.3000 -107.600 TC 45 19.3000 -107.600 2 15 301
1958208N16260 1958 58 EP MM NOT_NAMED 1958-07-28 03:00:00 TS 19.6602 -108.233 main 272 272 P________PP___ EP051958 19.6571 -108.230 TS 45 0 19.6571 -108.230 TC 45 19.6723 -108.242 2 13 302
1958208N16260 1958 58 EP MM NOT_NAMED 1958-07-28 06:00:00 TS 20.0072 -108.807 45 hurdat_epa main 326 295 O________OP___ hurdat_epa EP051958 20.0000 -108.800 TS 45 0 20.0000 -108.800 TC 45 20.0361 -108.833 2 13 304
1958208N16260 1958 58 EP MM NOT_NAMED 1958-07-28 09:00:00 TS 20.3682 -109.369 main 282 245 P________PP___ EP051958 20.3648 -109.365 TS 45 0 20.3648 -109.365 TC 45 20.3819 -109.383 2 12 304
1958208N16260 1958 58 EP MM NOT_NAMED 1958-07-28 12:00:00 TS 20.7000 -109.900 45 hurdat_epa main 245 224 O________OO___ hurdat_epa EP051958 20.7000 -109.900 TS 45 0 20.7000 -109.900 TC 45 20.7000 -109.900 2 11 301
1958208N16260 1958 58 EP MM NOT_NAMED 1958-07-28 15:00:00 TS 20.9575 -110.406 main 216 207 P________PP___ EP051958 20.9648 -110.415 TS 45 0 20.9648 -110.415 TC 45 20.9283 -110.366 2 10 298
1958208N16260 1958 58 EP MM NOT_NAMED 1958-07-28 18:00:00 TS 21.1875 -110.882 45 hurdat_epa main 211 206 O________OP___ hurdat_epa EP051958 21.2000 -110.900 TS 45 0 21.2000 -110.900 TC 45 21.1375 -110.810 2 9 298
1958208N16260 1958 58 EP MM NOT_NAMED 1958-07-28 21:00:00 TS 21.3991 -111.306 main 214 212 P________PP___ EP051958 21.4044 -111.314 TS 45 0 21.4044 -111.314 TC 45 21.3781 -111.273 2 10 301
1958208N16260 1958 58 EP MM NOT_NAMED 1958-07-29 00:00:00 TS 21.7000 -111.800 45 hurdat_epa main 228 228 O________OO___ hurdat_epa EP051958 21.7000 -111.800 TS 45 0 21.7000 -111.800 TC 45 21.7000 -111.800 2 14 306
1958208N16260 1958 58 EP MM NOT_NAMED 1958-07-29 03:00:00 TS 22.1997 -112.505 main 256 237 P________PP___ EP051958 22.2053 -112.512 TS 45 0 22.2053 -112.512 TC 45 22.1771 -112.475 2 18 308
1958208N16260 1958 58 EP MM NOT_NAMED 1958-07-29 06:00:00 TS 22.7868 -113.283 45 hurdat_epa main 243 237 O________OP___ hurdat_epa EP051958 22.8000 -113.300 TS 45 0 22.8000 -113.300 TC 45 22.7342 -113.217 2 18 310
1958208N16260 1958 58 EP MM NOT_NAMED 1958-07-29 09:00:00 TS 23.3506 -114.013 main 240 240 P________PP___ EP051958 23.3573 -114.023 TS 45 0 23.3573 -114.023 TC 45 23.3240 -113.976 2 17 311
1958208N16260 1958 58 EP MM NOT_NAMED 1958-07-29 12:00:00 TS 23.9000 -114.700 45 hurdat_epa main 272 272 O________OO___ hurdat_epa EP051958 23.9000 -114.700 TS 45 0 23.9000 -114.700 TC 45 23.9000 -114.700 2 16 312
1958208N16260 1958 58 EP MM NOT_NAMED 1958-07-29 15:00:00 TS 24.4171 -115.328 main 308 297 P________PP___ EP051958 24.4146 -115.323 TS 45 0 24.4146 -115.323 TC 45 24.4268 -115.350 2 15 312
1958208N16260 1958 58 EP MM NOT_NAMED 1958-07-29 18:00:00 TS 24.9019 -115.907 45 hurdat_epa main 297 284 O________OP___ hurdat_epa EP051958 24.9000 -115.900 TS 45 0 24.9000 -115.900 TC 45 24.9095 -115.935 2 14 313
1958208N16260 1958 58 EP MM NOT_NAMED 1958-07-29 21:00:00 TS 25.3589 -116.459 main 290 283 P________PP___ EP051958 25.3579 -116.454 TS 45 0 25.3579 -116.454 TC 45 25.3625 -116.477 2 13 312
1958208N16260 1958 58 EP MM NOT_NAMED 1958-07-30 00:00:00 TS 25.8000 -117.000 45 hurdat_epa main 290 O________OO___ hurdat_epa EP051958 25.8000 -117.000 TS 45 0 25.8000 -117.000 TC 45 25.8000 -117.000 2 13 312

IBTrACS Databaseについて

本データベースは、米国NOAAが公開する1842年以降の世界の熱帯低気圧のベストトラックデータアーカイブInternational Best Track Archive for Climate Stewardship (IBTrACS)を、ウェブで閲覧しやすい形式に変換したものです。

最終更新日:2021-12-01